Time;durP1;ratioP1;P1;durP2;ratioP2;P2;SDS_P1;SDS_P2;PMS_P1;PMS_P2;Temp;Humidity;BMP_temperature;BMP_pressure;BME280_temperature;BME280_humidity;BME280_pressure;Samples;Min_cycle;Max_cycle;Signal;HPM_P1;HPM_P2
2023/03/23 00:04:42;;;;;;;2.17;1.30;;;14.60;92.70;;;;;;10315807;28;20238;-73
2023/03/23 00:09:43;;;;;;;2.17;1.10;;;14.60;93.30;;;;;;10312520;28;20674;-71
2023/03/23 00:14:43;;;;;;;2.23;1.20;;;14.60;93.10;;;;;;10317506;28;20226;-70
2023/03/23 00:19:47;;;;;;;2.03;1.33;;;14.50;93.50;;;;;;10322364;28;20245;-73
2023/03/23 00:24:56;;;;;;;2.30;1.23;;;14.60;93.80;;;;;;10324834;28;20280;-70
2023/03/23 00:29:57;;;;;;;2.27;1.50;;;14.50;94.30;;;;;;10315778;28;20226;-72
2023/03/23 00:35:01;;;;;;;1.90;1.30;;;14.60;94.90;;;;;;10314926;28;20222;-71
2023/03/23 00:40:06;;;;;;;4.63;1.70;;;14.50;95.40;;;;;;10322527;28;20297;-72
2023/03/23 00:45:10;;;;;;;1.83;1.40;;;14.50;95.80;;;;;;10327257;28;21070;-72
2023/03/23 00:50:12;;;;;;;2.13;1.30;;;14.60;95.80;;;;;;10321550;28;20199;-75
2023/03/23 00:55:13;;;;;;;2.60;1.47;;;14.60;96.10;;;;;;10311785;28;20217;-75
2023/03/23 01:00:14;;;;;;;2.60;1.27;;;14.50;96.20;;;;;;10321694;28;20202;-72
2023/03/23 01:05:15;;;;;;;2.43;1.37;;;14.50;96.20;;;;;;10319794;28;20333;-74
2023/03/23 01:10:16;;;;;;;2.33;1.60;;;14.50;96.40;;;;;;10321487;28;20199;-71
2023/03/23 01:15:17;;;;;;;3.70;1.60;;;14.50;96.60;;;;;;10313998;28;20221;-72
2023/03/23 01:20:17;;;;;;;2.20;1.20;;;14.50;96.70;;;;;;10309789;28;20192;-71
2023/03/23 01:25:19;;;;;;;4.33;1.50;;;14.50;96.50;;;;;;10316513;28;20194;-72
2023/03/23 01:30:20;;;;;;;1.90;1.43;;;14.50;96.90;;;;;;10323793;28;20559;-73
2023/03/23 01:35:21;;;;;;;2.20;1.57;;;14.50;97.00;;;;;;10313501;28;20220;-72
2023/03/23 01:40:27;;;;;;;2.40;1.50;;;14.50;97.20;;;;;;10313554;28;20202;-71
2023/03/23 01:45:35;;;;;;;1.73;1.30;;;14.40;97.10;;;;;;10320954;28;20544;-71
2023/03/23 01:50:49;;;;;;;2.97;1.43;;;14.40;97.10;;;;;;10311739;28;20217;-72
2023/03/23 01:55:53;;;;;;;1.57;1.20;;;14.40;97.10;;;;;;10318757;28;20236;-73
2023/03/23 02:00:56;;;;;;;2.40;1.40;;;14.40;96.90;;;;;;10304665;28;20227;-72
2023/03/23 02:06:04;;;;;;;1.40;1.30;;;14.40;97.20;;;;;;10314416;28;20249;-73
2023/03/23 02:11:15;;;;;;;1.30;1.07;;;14.40;97.60;;;;;;10306247;28;20235;-74
2023/03/23 02:16:34;;;;;;;1.97;1.60;;;14.30;97.90;;;;;;10319795;28;20385;-73
2023/03/23 02:22:22;;;;;;;1.40;1.30;;;14.30;98.20;;;;;;10314318;28;20223;-73
2023/03/23 02:27:47;;;;;;;2.70;1.60;;;14.30;98.40;;;;;;10305519;28;20315;-74
2023/03/23 02:33:16;;;;;;;3.00;1.30;;;14.20;98.70;;;;;;10301712;28;20230;-71
2023/03/23 02:38:23;;;;;;;1.80;1.60;;;14.20;98.90;;;;;;10298501;28;20241;-72
2023/03/23 02:43:28;;;;;;;1.50;1.13;;;14.20;99.00;;;;;;10312525;28;20225;-72
2023/03/23 02:48:30;;;;;;;2.00;1.40;;;14.10;99.10;;;;;;10324078;28;20621;-69
2023/03/23 02:53:35;;;;;;;2.90;1.50;;;14.10;98.90;;;;;;10319353;28;20226;-71
2023/03/23 02:58:36;;;;;;;1.73;1.50;;;14.20;98.80;;;;;;10309250;28;20261;-71
2023/03/23 03:03:36;;;;;;;2.23;1.40;;;14.20;99.60;;;;;;10309847;28;20760;-71
2023/03/23 03:08:55;;;;;;;5.77;1.60;;;14.10;99.90;;;;;;10315518;28;20286;-72
2023/03/23 03:13:59;;;;;;;1.23;1.13;;;14.10;99.90;;;;;;10318850;28;20594;-72
2023/03/23 03:19:14;;;;;;;1.53;1.40;;;14.00;99.90;;;;;;10311514;28;20612;-74
2023/03/23 03:24:18;;;;;;;2.33;1.40;;;13.90;99.90;;;;;;10322769;28;20243;-72
2023/03/23 03:29:23;;;;;;;5.53;1.40;;;13.80;99.90;;;;;;10320043;28;20214;-73
2023/03/23 03:34:24;;;;;;;2.47;1.10;;;13.80;99.90;;;;;;10321051;28;20241;-72
2023/03/23 03:39:25;;;;;;;1.50;1.40;;;13.80;99.90;;;;;;10321087;28;20312;-73
2023/03/23 03:44:26;;;;;;;3.47;1.50;;;13.90;99.90;;;;;;10320350;28;20350;-72
2023/03/23 03:49:27;;;;;;;2.50;1.77;;;13.90;99.90;;;;;;10323252;28;20686;-73
2023/03/23 03:54:28;;;;;;;1.20;1.10;;;13.90;99.90;;;;;;10320420;28;20229;-73
2023/03/23 03:59:30;;;;;;;2.03;1.43;;;13.90;99.90;;;;;;10323065;28;20232;-71
2023/03/23 04:04:31;;;;;;;1.73;1.00;;;13.90;99.90;;;;;;10316267;28;20646;-72
2023/03/23 04:09:31;;;;;;;1.30;1.20;;;13.90;99.90;;;;;;10317691;28;20265;-73
2023/03/23 04:14:33;;;;;;;2.97;1.37;;;13.90;99.90;;;;;;10320552;28;20741;-70
2023/03/23 04:19:33;;;;;;;2.17;1.63;;;13.80;99.90;;;;;;10310021;28;20227;-70
2023/03/23 04:24:35;;;;;;;3.27;1.60;;;13.80;99.90;;;;;;10330083;28;20713;-70
2023/03/23 04:29:36;;;;;;;2.03;1.60;;;13.70;99.90;;;;;;10307845;28;20309;-71
2023/03/23 04:34:36;;;;;;;1.53;1.23;;;13.70;99.90;;;;;;10319775;28;20224;-70
2023/03/23 04:39:39;;;;;;;1.60;1.50;;;13.70;99.90;;;;;;10315721;28;20300;-74
2023/03/23 04:44:40;;;;;;;2.90;1.70;;;13.70;99.90;;;;;;10321851;28;20240;-74
2023/03/23 04:49:41;;;;;;;1.80;1.60;;;13.70;99.90;;;;;;10308972;28;20228;-72
2023/03/23 04:54:42;;;;;;;2.73;1.57;;;13.70;99.90;;;;;;10326774;28;20237;-71
2023/03/23 04:59:43;;;;;;;2.77;1.57;;;13.60;99.90;;;;;;10326188;28;20226;-71
2023/03/23 05:04:44;;;;;;;2.30;1.30;;;13.60;99.90;;;;;;10319514;28;20226;-72
2023/03/23 05:09:50;;;;;;;2.20;1.50;;;13.60;99.90;;;;;;10312078;28;20225;-72
2023/03/23 05:14:50;;;;;;;2.60;1.60;;;13.60;99.90;;;;;;10320407;28;20222;-73
2023/03/23 05:19:52;;;;;;;1.57;1.40;;;13.60;99.90;;;;;;10305792;28;20224;-70
2023/03/23 05:24:52;;;;;;;1.27;1.03;;;13.60;99.90;;;;;;10317573;28;20222;-71
2023/03/23 05:29:53;;;;;;;3.67;1.30;;;13.60;99.90;;;;;;10319419;28;20260;-71
2023/03/23 05:35:00;;;;;;;1.90;1.30;;;13.60;99.90;;;;;;10317918;28;20228;-71
2023/03/23 05:40:05;;;;;;;3.87;1.40;;;13.60;99.90;;;;;;10312976;28;20221;-72
2023/03/23 05:45:06;;;;;;;1.93;1.10;;;13.60;99.90;;;;;;10324619;28;20225;-71
2023/03/23 05:50:12;;;;;;;1.63;1.20;;;13.70;99.90;;;;;;10309865;28;20201;-73
2023/03/23 05:55:14;;;;;;;1.43;1.33;;;13.70;99.90;;;;;;10309185;28;20217;-71
2023/03/23 06:00:19;;;;;;;1.90;1.50;;;13.70;99.90;;;;;;10325783;28;20276;-73
2023/03/23 06:05:19;;;;;;;1.47;1.33;;;13.70;99.90;;;;;;10310486;28;20966;-73
2023/03/23 06:10:23;;;;;;;2.97;1.60;;;13.80;99.90;;;;;;10314536;28;20259;-75
2023/03/23 06:15:24;;;;;;;1.47;1.20;;;13.70;99.90;;;;;;10311035;28;20662;-73
2023/03/23 06:20:25;;;;;;;3.40;1.60;;;13.50;99.90;;;;;;10329255;28;20256;-72
2023/03/23 06:25:29;;;;;;;1.70;1.40;;;13.50;99.90;;;;;;10318323;28;20269;-74
2023/03/23 06:30:30;;;;;;;4.60;1.30;;;13.40;99.90;;;;;;10305854;28;20323;-74
2023/03/23 06:35:31;;;;;;;2.23;1.50;;;13.50;99.90;;;;;;10307488;28;20233;-72
2023/03/23 06:40:32;;;;;;;1.50;1.40;;;13.50;99.90;;;;;;10317316;28;20223;-73
2023/03/23 06:45:33;;;;;;;1.57;1.30;;;13.50;99.90;;;;;;10319379;28;20896;-73
2023/03/23 06:50:33;;;;;;;2.17;1.37;;;13.50;99.90;;;;;;10340363;28;20230;-74
2023/03/23 06:55:34;;;;;;;1.70;1.43;;;13.40;99.90;;;;;;10328592;28;20231;-73
2023/03/23 07:00:35;;;;;;;3.40;1.33;;;13.40;99.90;;;;;;10319856;28;20238;-73
2023/03/23 07:05:36;;;;;;;2.43;1.60;;;13.40;99.90;;;;;;10303153;28;20233;-70
2023/03/23 07:10:37;;;;;;;6.67;1.83;;;13.40;99.90;;;;;;10313931;28;20227;-70
2023/03/23 07:15:39;;;;;;;2.53;1.60;;;13.40;99.90;;;;;;10311284;28;20246;-70
2023/03/23 07:20:39;;;;;;;2.90;1.60;;;13.60;99.90;;;;;;10307480;28;20241;-71
2023/03/23 07:25:40;;;;;;;3.43;1.70;;;13.80;99.90;;;;;;10309236;28;20371;-70
2023/03/23 07:30:41;;;;;;;2.30;1.60;;;14.00;99.90;;;;;;10313783;28;20214;-72
2023/03/23 07:35:41;;;;;;;3.87;1.63;;;14.10;99.90;;;;;;10322996;28;20291;-71
2023/03/23 07:40:42;;;;;;;2.47;1.50;;;14.10;99.90;;;;;;10335755;28;20280;-72
2023/03/23 07:45:42;;;;;;;2.43;1.50;;;14.10;99.90;;;;;;10305308;28;20339;-73
2023/03/23 07:50:43;;;;;;;2.50;1.70;;;14.10;99.90;;;;;;10306467;28;20221;-72
2023/03/23 07:55:44;;;;;;;1.83;1.30;;;14.00;99.90;;;;;;10324825;28;20658;-72
2023/03/23 08:00:46;;;;;;;5.10;1.33;;;13.90;99.90;;;;;;10323572;28;20233;-73
2023/03/23 08:05:46;;;;;;;2.70;1.30;;;13.90;99.90;;;;;;10330181;28;20313;-74
2023/03/23 08:10:47;;;;;;;2.93;1.43;;;13.90;99.90;;;;;;10333545;28;20221;-74
2023/03/23 08:15:48;;;;;;;5.67;1.43;;;14.00;99.90;;;;;;10328630;28;20527;-73
2023/03/23 08:20:49;;;;;;;1.77;1.30;;;14.20;99.90;;;;;;10306908;28;20596;-73
2023/03/23 08:25:49;;;;;;;2.43;1.63;;;14.10;99.90;;;;;;10315155;28;20584;-72
2023/03/23 08:30:50;;;;;;;1.43;1.33;;;14.10;99.90;;;;;;10314561;28;20321;-73
2023/03/23 08:35:58;;;;;;;3.97;1.50;;;14.10;99.90;;;;;;10307394;28;20893;-73
2023/03/23 08:41:01;;;;;;;4.80;1.50;;;14.00;99.90;;;;;;10313492;28;20599;-72
2023/03/23 08:46:06;;;;;;;4.00;1.83;;;14.00;99.90;;;;;;10323554;28;20300;-72
2023/03/23 08:51:08;;;;;;;3.50;1.00;;;14.00;99.90;;;;;;10323094;28;20221;-72
2023/03/23 08:56:10;;;;;;;1.50;1.20;;;14.00;99.90;;;;;;10308490;28;20309;-72
2023/03/23 09:01:11;;;;;;;3.03;1.50;;;14.00;99.90;;;;;;10310845;28;20601;-72
2023/03/23 09:06:12;;;;;;;2.40;1.47;;;14.10;99.90;;;;;;10307226;28;20242;-75
2023/03/23 09:11:13;;;;;;;1.67;1.33;;;14.30;99.90;;;;;;10311126;28;20222;-73
2023/03/23 09:16:14;;;;;;;1.83;1.17;;;14.30;99.90;;;;;;10309013;28;20233;-72
2023/03/23 09:21:14;;;;;;;1.83;1.10;;;14.40;99.90;;;;;;10310797;28;20665;-73
2023/03/23 09:26:15;;;;;;;2.80;1.30;;;14.50;99.90;;;;;;10308161;28;20226;-73
2023/03/23 09:31:15;;;;;;;2.63;1.30;;;14.60;99.90;;;;;;10313198;28;20214;-73
2023/03/23 09:36:17;;;;;;;2.37;1.57;;;14.80;99.90;;;;;;10321273;28;20252;-73
2023/03/23 09:41:33;;;;;;;2.77;1.00;;;14.90;99.90;;;;;;10309310;28;20218;-72
2023/03/23 09:46:50;;;;;;;1.13;1.00;;;15.20;99.90;;;;;;10316364;28;20318;-72
2023/03/23 09:51:55;;;;;;;1.60;1.07;;;15.50;99.90;;;;;;10302930;28;20231;-73
2023/03/23 09:56:59;;;;;;;1.90;1.33;;;17.00;99.90;;;;;;10304491;28;20324;-72
2023/03/23 10:02:15;;;;;;;2.77;1.10;;;18.00;99.90;;;;;;10317211;28;20236;-72
2023/03/23 10:07:23;;;;;;;2.97;1.00;;;19.60;99.90;;;;;;10303479;28;20229;-72
2023/03/23 10:12:44;;;;;;;1.73;1.10;;;19.60;99.90;;;;;;10308189;28;20231;-71
2023/03/23 10:17:51;;;;;;;2.73;1.10;;;18.30;99.90;;;;;;10318022;28;20314;-72
2023/03/23 10:23:05;;;;;;;1.60;1.20;;;17.50;99.90;;;;;;10299906;28;20221;-72
2023/03/23 10:28:39;;;;;;;1.53;0.80;;;17.10;99.90;;;;;;10302296;28;20295;-72
2023/03/23 10:33:44;;;;;;;3.63;1.10;;;16.90;99.90;;;;;;10317013;28;20231;-72
2023/03/23 10:38:55;;;;;;;2.00;1.30;;;16.70;99.90;;;;;;10323842;28;20291;-72
2023/03/23 10:43:56;;;;;;;1.40;0.90;;;16.60;99.90;;;;;;10327480;28;20782;-71
2023/03/23 10:49:00;;;;;;;2.57;0.90;;;16.40;99.90;;;;;;10321341;28;20231;-71
2023/03/23 10:54:04;;;;;;;4.00;1.20;;;16.20;99.90;;;;;;10323143;28;20345;-72
2023/03/23 10:59:27;;;;;;;1.53;0.90;;;16.10;99.90;;;;;;10322446;28;20235;-71
2023/03/23 11:04:28;;;;;;;1.17;0.93;;;16.20;99.90;;;;;;10320595;28;20221;-71
2023/03/23 11:09:37;;;;;;;6.23;5.63;;;16.20;99.90;;;;;;10322798;28;20218;-70
2023/03/23 11:14:39;;;;;;;1.20;1.10;;;16.20;99.90;;;;;;10322602;28;20588;-72
2023/03/23 11:19:39;;;;;;;3.60;0.97;;;16.50;99.90;;;;;;10322644;28;20861;-72
2023/03/23 11:24:44;;;;;;;0.90;0.80;;;16.60;99.90;;;;;;10322981;28;20273;-71
2023/03/23 11:29:55;;;;;;;1.67;0.90;;;16.70;99.90;;;;;;10324177;28;20319;-73
2023/03/23 11:35:05;;;;;;;3.50;1.23;;;16.70;99.90;;;;;;10312288;28;20930;-73
2023/03/23 11:40:09;;;;;;;1.83;0.90;;;16.60;99.90;;;;;;10314482;28;20216;-72
2023/03/23 11:45:31;;;;;;;2.43;1.10;;;16.60;99.90;;;;;;10319094;28;20539;-71
2023/03/23 11:51:01;;;;;;;1.40;0.80;;;16.40;99.90;;;;;;10319471;28;20222;-72
2023/03/23 11:56:21;;;;;;;4.63;1.30;;;16.20;99.90;;;;;;10310211;28;20299;-72
2023/03/23 12:01:50;;;;;;;1.67;1.10;;;15.70;99.90;;;;;;10312815;28;20277;-72
2023/03/23 12:07:28;;;;;;;2.50;1.03;;;15.50;99.90;;;;;;10316200;28;20224;-71
2023/03/23 12:12:48;;;;;;;2.10;1.10;;;15.50;99.90;;;;;;10312649;28;20226;-72
2023/03/23 12:17:58;;;;;;;4.00;1.33;;;15.50;99.90;;;;;;10307857;28;20599;-71
2023/03/23 12:23:33;;;;;;;0.83;0.80;;;15.70;99.90;;;;;;10306727;28;20226;-72
2023/03/23 12:28:52;;;;;;;2.17;1.00;;;15.90;99.90;;;;;;10319932;28;20313;-71
2023/03/23 12:34:01;;;;;;;0.77;0.60;;;16.00;99.90;;;;;;10314999;28;20683;-72
2023/03/23 12:39:36;;;;;;;1.77;0.73;;;15.90;99.90;;;;;;10331612;28;20238;-72
2023/03/23 12:45:05;;;;;;;0.73;0.60;;;16.00;99.90;;;;;;10327428;28;20215;-72
2023/03/23 12:50:17;;;;;;;0.60;0.53;;;16.30;99.90;;;;;;10307239;28;20416;-72
2023/03/23 12:55:21;;;;;;;0.80;0.60;;;16.50;99.90;;;;;;10318710;28;20351;-72
2023/03/23 13:00:22;;;;;;;1.37;1.07;;;17.00;99.90;;;;;;10309934;28;20216;-72
2023/03/23 13:05:23;;;;;;;0.70;0.70;;;17.60;99.90;;;;;;10309852;28;20200;-70
2023/03/23 13:10:31;;;;;;;1.43;0.60;;;18.00;99.90;;;;;;10313480;28;20272;-71
2023/03/23 13:15:48;;;;;;;2.70;0.93;;;18.10;99.90;;;;;;10311423;28;20222;-73
2023/03/23 13:20:55;;;;;;;1.57;0.83;;;17.90;99.90;;;;;;10306031;28;20282;-72
2023/03/23 13:25:59;;;;;;;3.30;0.93;;;17.60;99.90;;;;;;10310939;28;20284;-71
2023/03/23 13:31:21;;;;;;;2.27;0.83;;;17.30;99.90;;;;;;10319035;28;20724;-74
2023/03/23 13:36:33;;;;;;;1.00;0.80;;;16.90;99.90;;;;;;10313205;28;20241;-76
2023/03/23 13:41:45;;;;;;;2.00;0.70;;;17.00;99.90;;;;;;10320035;28;20229;-74
2023/03/23 13:47:16;;;;;;;2.50;0.87;;;17.00;99.90;;;;;;10311163;28;20280;-76
2023/03/23 13:52:37;;;;;;;2.20;0.93;;;16.70;99.90;;;;;;10308570;28;20257;-73
2023/03/23 13:57:49;;;;;;;1.10;0.67;;;16.60;99.90;;;;;;10309902;28;20886;-72
2023/03/23 14:02:50;;;;;;;1.70;0.60;;;16.60;99.90;;;;;;10302678;28;20232;-73
2023/03/23 14:07:59;;;;;;;2.70;0.63;;;16.90;99.90;;;;;;10309819;28;20312;-75
2023/03/23 14:13:02;;;;;;;3.57;0.80;;;17.10;99.90;;;;;;10310484;28;20789;-74
2023/03/23 14:18:04;;;;;;;1.23;0.50;;;17.30;99.90;;;;;;10306086;28;20274;-72
2023/03/23 14:23:05;;;;;;;2.13;0.60;;;17.20;99.90;;;;;;10302529;28;20603;-74
2023/03/23 14:28:17;;;;;;;3.10;0.67;;;16.90;99.90;;;;;;10305005;28;20220;-73
2023/03/23 14:33:19;;;;;;;1.20;0.70;;;16.50;99.90;;;;;;10329365;28;20224;-72
2023/03/23 14:38:27;;;;;;;1.80;0.50;;;16.20;99.90;;;;;;10325748;28;20230;-74
2023/03/23 14:43:30;;;;;;;2.20;1.70;;;16.00;99.90;;;;;;10305557;28;20222;-73
2023/03/23 14:48:30;;;;;;;0.97;0.50;;;15.90;99.90;;;;;;10303581;28;20758;-74
2023/03/23 14:53:37;;;;;;;2.40;0.80;;;15.80;99.90;;;;;;10306372;28;20248;-74
2023/03/23 14:58:38;;;;;;;4.53;0.90;;;15.80;99.90;;;;;;10271074;28;1065293;-73
2023/03/23 15:04:05;;;;;;;1.23;1.03;;;15.80;99.90;;;;;;10303892;28;20221;-72
2023/03/23 15:09:12;;;;;;;1.67;1.10;;;15.90;99.90;;;;;;10303155;28;20305;-72
2023/03/23 15:14:17;;;;;;;3.07;0.70;;;15.80;99.90;;;;;;10314152;28;20605;-74
2023/03/23 15:19:33;;;;;;;1.03;0.80;;;15.80;99.90;;;;;;10305842;28;20222;-74
2023/03/23 15:24:38;;;;;;;1.10;0.70;;;15.80;99.90;;;;;;10311185;28;20221;-72
2023/03/23 15:30:02;;;;;;;1.93;0.90;;;15.90;99.90;;;;;;10302198;28;20317;-73
2023/03/23 15:35:11;;;;;;;2.60;1.00;;;15.90;99.90;;;;;;10301169;28;20230;-74
2023/03/23 15:40:21;;;;;;;1.53;1.03;;;15.90;99.90;;;;;;10308764;28;20282;-74
2023/03/23 15:45:28;;;;;;;0.80;0.80;;;15.90;99.90;;;;;;10305284;28;20178;-74
2023/03/23 15:50:28;;;;;;;1.03;0.87;;;15.90;99.90;;;;;;10312226;28;20254;-74
2023/03/23 15:55:36;;;;;;;1.37;0.80;;;15.70;99.90;;;;;;10315063;28;20238;-74
2023/03/23 16:00:37;;;;;;;2.80;0.87;;;15.60;99.90;;;;;;10307241;28;20242;-72
2023/03/23 16:05:38;;;;;;;3.87;0.67;;;15.60;99.90;;;;;;10303334;28;20228;-73
2023/03/23 16:10:39;;;;;;;2.63;1.03;;;15.60;99.90;;;;;;10314070;28;20230;-74
2023/03/23 16:15:40;;;;;;;4.43;1.10;;;15.60;99.90;;;;;;10310217;28;20242;-74
2023/03/23 16:20:40;;;;;;;4.07;1.30;;;15.70;99.90;;;;;;10307091;28;20228;-71
2023/03/23 16:25:41;;;;;;;1.77;0.97;;;15.50;99.90;;;;;;10319353;28;20307;-73
2023/03/23 16:30:43;;;;;;;1.47;0.70;;;15.50;99.90;;;;;;10318207;28;20687;-72
2023/03/23 16:35:44;;;;;;;1.60;0.93;;;15.40;99.90;;;;;;10316679;28;20241;-73
2023/03/23 16:40:46;;;;;;;3.23;0.90;;;15.30;99.90;;;;;;10323556;28;20219;-73
2023/03/23 16:45:47;;;;;;;1.33;1.00;;;15.20;99.90;;;;;;10318066;28;20214;-72
2023/03/23 16:50:47;;;;;;;1.07;0.93;;;15.10;99.90;;;;;;10315761;28;20266;-73
2023/03/23 16:55:51;;;;;;;4.30;0.90;;;15.00;99.90;;;;;;10315165;28;20297;-73
2023/03/23 17:00:52;;;;;;;1.13;0.80;;;15.00;99.90;;;;;;10307497;28;20608;-73
2023/03/23 17:05:53;;;;;;;1.00;0.87;;;14.90;99.90;;;;;;10315388;28;20241;-72
2023/03/23 17:10:53;;;;;;;1.63;1.20;;;14.80;99.90;;;;;;10314916;28;20227;-73
2023/03/23 17:15:55;;;;;;;2.00;1.00;;;14.70;99.90;;;;;;10315555;28;20388;-74
2023/03/23 17:20:56;;;;;;;2.20;1.20;;;14.60;99.90;;;;;;10307595;28;20315;-74
2023/03/23 17:25:57;;;;;;;1.87;1.27;;;14.40;99.90;;;;;;10320707;28;20333;-73
2023/03/23 17:30:57;;;;;;;2.73;1.40;;;14.30;99.90;;;;;;10306776;28;20305;-73
2023/03/23 17:35:58;;;;;;;4.27;1.50;;;14.20;99.90;;;;;;10314397;28;20232;-73
2023/03/23 17:41:00;;;;;;;3.63;1.30;;;14.10;99.90;;;;;;10315352;28;20293;-74
2023/03/23 17:46:01;;;;;;;3.37;1.20;;;14.00;99.90;;;;;;10317470;28;20240;-75
2023/03/23 17:51:02;;;;;;;1.93;1.73;;;13.90;99.90;;;;;;10306581;28;20633;-74
2023/03/23 17:56:04;;;;;;;2.53;1.37;;;13.90;99.90;;;;;;10311888;28;20768;-73
2023/03/23 18:01:05;;;;;;;2.67;1.40;;;13.80;99.90;;;;;;10314437;28;20772;-72
2023/03/23 18:06:07;;;;;;;3.20;1.53;;;13.80;99.90;;;;;;10311592;28;20225;-73
2023/03/23 18:11:07;;;;;;;2.27;1.60;;;13.80;99.90;;;;;;10307850;28;20227;-75
2023/03/23 18:16:09;;;;;;;1.90;1.40;;;13.80;99.90;;;;;;10310909;28;20253;-76
2023/03/23 18:21:09;;;;;;;1.87;1.30;;;13.80;99.90;;;;;;10306378;28;20227;-75
2023/03/23 18:26:12;;;;;;;2.13;1.23;;;13.80;99.90;;;;;;10326321;28;20226;-74
2023/03/23 18:31:16;;;;;;;1.97;1.30;;;13.90;99.90;;;;;;10335496;28;20270;-75
2023/03/23 18:36:19;;;;;;;1.57;1.27;;;13.90;99.90;;;;;;10308427;28;20240;-74
2023/03/23 18:41:20;;;;;;;3.83;1.80;;;14.00;99.90;;;;;;10310746;28;20721;-73
2023/03/23 18:46:20;;;;;;;2.70;1.90;;;14.10;99.90;;;;;;10307433;28;20218;-73
2023/03/23 18:51:21;;;;;;;1.87;1.60;;;14.10;99.90;;;;;;10313441;28;20313;-73
2023/03/23 18:56:22;;;;;;;1.93;1.70;;;14.10;99.90;;;;;;10306477;28;20231;-73
2023/03/23 19:01:22;;;;;;;2.00;1.80;;;14.10;99.90;;;;;;10306766;28;20237;-73
2023/03/23 19:06:26;;;;;;;2.10;1.70;;;14.20;99.90;;;;;;10306769;28;20234;-72
2023/03/23 19:11:26;;;;;;;1.93;1.53;;;14.20;99.90;;;;;;10313712;28;20223;-74
2023/03/23 19:16:29;;;;;;;2.23;1.87;;;14.20;99.90;;;;;;10306094;28;20242;-74
2023/03/23 19:21:31;;;;;;;2.47;1.70;;;14.20;99.90;;;;;;10315260;28;20218;-74
2023/03/23 19:26:39;;;;;;;2.37;2.00;;;14.30;99.90;;;;;;10302195;28;20220;-75
2023/03/23 19:31:40;;;;;;;2.77;2.17;;;14.30;99.90;;;;;;10303623;28;20226;-73
2023/03/23 19:36:43;;;;;;;2.80;2.33;;;14.30;99.90;;;;;;10310057;28;20582;-74
2023/03/23 19:41:45;;;;;;;3.67;2.40;;;14.20;99.90;;;;;;10301575;28;20305;-74
2023/03/23 19:46:46;;;;;;;4.07;2.20;;;14.30;99.90;;;;;;10323013;28;20222;-71
2023/03/23 19:51:47;;;;;;;2.60;2.40;;;14.20;99.90;;;;;;10327784;28;20769;-75
2023/03/23 19:56:48;;;;;;;4.20;2.30;;;14.20;99.90;;;;;;10325633;28;20233;-74
2023/03/23 20:01:49;;;;;;;2.87;2.57;;;14.10;99.90;;;;;;10328490;28;20218;-77
2023/03/23 20:06:51;;;;;;;2.90;2.60;;;14.10;99.90;;;;;;10328991;28;20295;-75
2023/03/23 20:11:51;;;;;;;4.13;2.70;;;14.10;99.90;;;;;;10332848;28;20241;-77
2023/03/23 20:16:52;;;;;;;3.77;2.40;;;14.10;99.90;;;;;;10317026;28;20227;-77
2023/03/23 20:21:52;;;;;;;4.07;2.73;;;14.00;99.90;;;;;;10309154;28;20607;-74
2023/03/23 20:26:53;;;;;;;3.57;2.60;;;13.90;99.90;;;;;;10316555;28;20684;-75
2023/03/23 20:31:54;;;;;;;3.63;2.57;;;13.90;99.90;;;;;;10331590;28;20217;-75
2023/03/23 20:36:56;;;;;;;7.60;5.13;;;13.90;99.90;;;;;;10330268;28;20229;-76
2023/03/23 20:42:00;;;;;;;5.80;3.40;;;13.80;99.90;;;;;;10323613;28;20234;-75
2023/03/23 20:47:02;;;;;;;2.40;2.20;;;13.80;99.90;;;;;;10314277;28;20820;-79
2023/03/23 20:52:04;;;;;;;3.43;2.73;;;13.80;99.90;;;;;;10308951;28;20721;-76
2023/03/23 20:57:05;;;;;;;4.90;2.80;;;13.80;99.90;;;;;;10319249;28;20228;-76
2023/03/23 21:02:11;;;;;;;4.43;3.43;;;13.80;99.90;;;;;;10329390;28;20304;-75
2023/03/23 21:07:12;;;;;;;4.17;2.90;;;13.90;99.90;;;;;;10327784;28;20242;-75
2023/03/23 21:12:13;;;;;;;3.20;2.90;;;13.90;99.90;;;;;;10327149;28;20222;-74
2023/03/23 21:17:13;;;;;;;4.17;2.77;;;13.90;99.90;;;;;;10314768;28;20226;-74
2023/03/23 21:22:17;;;;;;;10.37;3.47;;;13.90;99.90;;;;;;10311803;28;20575;-75
2023/03/23 21:27:17;;;;;;;3.00;2.70;;;14.00;99.90;;;;;;10310323;28;20214;-75
2023/03/23 21:32:18;;;;;;;3.73;2.70;;;14.10;99.90;;;;;;10327682;28;20229;-73
2023/03/23 21:37:19;;;;;;;4.70;3.23;;;14.10;99.90;;;;;;10315783;28;20227;-74
2023/03/23 21:42:19;;;;;;;4.93;3.40;;;14.10;99.90;;;;;;10319656;28;20693;-72
2023/03/23 21:47:20;;;;;;;4.40;2.97;;;14.20;99.90;;;;;;10306986;28;20226;-75
2023/03/23 21:52:21;;;;;;;4.97;3.27;;;14.30;99.90;;;;;;10332775;28;20237;-75
2023/03/23 21:57:21;;;;;;;4.37;3.03;;;14.40;99.90;;;;;;10317920;28;20268;-72
2023/03/23 22:02:22;;;;;;;5.13;2.80;;;14.40;99.90;;;;;;10311997;28;20254;-68
2023/03/23 22:07:24;;;;;;;5.17;3.10;;;14.40;99.90;;;;;;10314099;28;20300;-69
2023/03/23 22:12:25;;;;;;;6.80;3.23;;;14.40;99.90;;;;;;10310926;28;20218;-69
2023/03/23 22:17:25;;;;;;;3.27;2.47;;;14.50;99.90;;;;;;10316907;28;20270;-70
2023/03/23 22:22:26;;;;;;;2.83;2.60;;;14.50;99.90;;;;;;10311615;28;20310;-68
2023/03/23 22:27:26;;;;;;;4.33;2.67;;;14.50;99.90;;;;;;10313455;28;20874;-69
2023/03/23 22:32:27;;;;;;;3.10;2.60;;;14.50;99.90;;;;;;10318386;28;20222;-69
2023/03/23 22:37:28;;;;;;;2.80;2.50;;;14.50;99.90;;;;;;10323198;28;20279;-67
2023/03/23 22:42:28;;;;;;;3.77;2.43;;;14.50;99.90;;;;;;10326090;28;20229;-67
2023/03/23 22:47:29;;;;;;;3.47;2.23;;;14.50;99.90;;;;;;10317051;28;20650;-68
2023/03/23 22:52:30;;;;;;;6.67;2.50;;;14.50;99.90;;;;;;10308168;28;20777;-68
2023/03/23 22:57:31;;;;;;;3.23;2.47;;;14.40;99.90;;;;;;10311972;28;20226;-68
2023/03/23 23:02:32;;;;;;;3.97;2.60;;;14.40;99.90;;;;;;10317820;28;20260;-68
2023/03/23 23:07:32;;;;;;;3.43;2.10;;;14.50;99.90;;;;;;10323997;28;20586;-68
2023/03/23 23:12:33;;;;;;;3.77;2.40;;;14.50;99.90;;;;;;10326731;28;20634;-67
2023/03/23 23:17:37;;;;;;;3.40;2.47;;;14.40;99.90;;;;;;10312044;28;20603;-69
2023/03/23 23:22:39;;;;;;;5.67;2.40;;;14.30;99.90;;;;;;10311139;28;20222;-69
2023/03/23 23:27:40;;;;;;;5.23;2.60;;;14.20;99.90;;;;;;10306253;28;20217;-70
2023/03/23 23:32:43;;;;;;;2.97;2.60;;;14.10;99.90;;;;;;10313903;28;20231;-69
2023/03/23 23:37:44;;;;;;;4.27;2.63;;;14.00;99.90;;;;;;10316352;28;20249;-71
2023/03/23 23:42:48;;;;;;;4.47;2.90;;;14.00;99.90;;;;;;10311600;28;20231;-70
2023/03/23 23:47:49;;;;;;;4.80;3.23;;;13.90;99.90;;;;;;10317279;28;20230;-70
2023/03/23 23:52:51;;;;;;;4.20;3.10;;;13.90;99.90;;;;;;10327366;28;20219;-71
2023/03/23 23:57:52;;;;;;;3.30;2.97;;;13.90;99.90;;;;;;10309261;28;20256;-71
